< < Back
Terminal Aerodrome Forecast


Current Version              Previous Versions:   1  2  3  4  5  6  7  8  9  

Terminal Aerodrome Forecast

069
FTUS44 KOHX 231400 AAA
TAFCSV
TAF AMD
KCSV 231404Z 2314/2412 14011G20KT P6SM SCT020 OVC090
      TEMPO 2314/2317 BKN020 OVC090
     FM231800 15014G24KT 2SM -RA BR VCTS OVC006CB
     FM240000 18014G24KT 4SM -DZ BR BKN006 OVC011
     FM240600 19014G26KT 5SM -DZ SCT006 OVC011
      TEMPO 2408/2412 2SM -DZ BKN006 OVC011=

Latest METAR

822
SAUS70 KWBC 232200 RRJ
MTRCSV
METAR KCSV 232153Z AUTO 13011G20KT 1 3/4SM RA SCT008 BKN012 OVC038 13/11
A2958 RMK AO2 SLP008 P0017 T01330106


USA.gov is the U.S. government's official web portal to all federal, state and local government web resources and services.